Terminal Aerodrome Forecast
Issued by NWS

Home | Current Version | Previous Version | Text Only | Print | Product List | Glossary On
Versions: 1 2 3 4 5 6 7 8 9 10 11 12 13 14 15 16 17 18 19 20 21 22 23 24 25 26 27 28 29 30 31 32 33 34 35 36 37 38
000
FTAK31 PANC 231415 AAA
TAFASN
TAF AMD
PASN 231415Z 2314/2412 16012KT P6SM -SHRA BKN008
      TEMPO 2314/2318 3SM -SHRASN BR BKN004
     FM231800 19015KT P6SM -SHRASN BKN012 OVC020
     FM240200 18013KT 4SM -SHSN SCT015 BKN025=

USA.gov is the U.S. government's official web portal to all federal, state and local government web resources and services.